createdAt,value
2023-03-17T00:04:14.784Z,65.25
2023-03-17T00:09:14.113Z,65.27
2023-03-17T00:14:11.083Z,65.38
2023-03-17T00:19:13.980Z,65.81
2023-03-17T00:24:14.735Z,66.48
2023-03-17T00:29:12.677Z,66.74
2023-03-17T00:34:11.810Z,67.26
2023-03-17T00:39:16.987Z,66.74
2023-03-17T00:44:14.537Z,66.77
2023-03-17T00:54:14.036Z,68.10
2023-03-17T00:59:19.818Z,68.06
2023-03-17T01:04:17.524Z,67.48
2023-03-17T01:09:18.709Z,67.94
2023-03-17T01:14:16.510Z,68.15
2023-03-17T01:19:13.926Z,68.99
2023-03-17T01:24:10.761Z,69.34
2023-03-17T01:29:08.465Z,69.96
2023-03-17T01:34:05.543Z,69.98
2023-03-17T01:39:04.760Z,70.27
2023-03-17T01:44:01.863Z,69.99
2023-03-17T01:49:17.451Z,70.32
2023-03-17T01:54:17.049Z,70.40
2023-03-17T01:59:19.431Z,70.94
2023-03-17T02:04:18.795Z,71.13
2023-03-17T02:09:16.721Z,70.84
2023-03-17T02:14:14.015Z,71.18
2023-03-17T02:19:11.209Z,71.54
2023-03-17T02:24:22.998Z,71.29
2023-03-17T02:29:21.429Z,71.41
2023-03-17T02:34:18.368Z,71.68
2023-03-17T02:39:17.036Z,72.24
2023-03-17T02:44:14.500Z,72.51
2023-03-17T02:49:14.294Z,72.60
2023-03-17T02:54:11.206Z,73.21
2023-03-17T02:59:08.833Z,72.99
2023-03-17T03:04:06.895Z,72.64
2023-03-17T03:09:04.014Z,73.16
2023-03-17T03:14:00.746Z,73.07
2023-03-17T03:18:57.617Z,72.96
2023-03-17T03:23:55.365Z,73.34
2023-03-17T03:28:52.234Z,73.58
2023-03-17T03:33:49.052Z,73.33
2023-03-17T03:38:48.645Z,72.92
2023-03-17T03:43:46.122Z,72.21
2023-03-17T03:48:43.178Z,72.30
2023-03-17T03:53:40.317Z,71.71
2023-03-17T03:58:37.207Z,72.26
2023-03-17T04:03:34.886Z,73.25
2023-03-17T04:08:32.167Z,73.17
2023-03-17T04:13:29.030Z,73.77
2023-03-17T04:18:25.863Z,73.26
2023-03-17T04:23:23.415Z,72.97
2023-03-17T04:28:21.845Z,72.97
2023-03-17T04:33:19.782Z,72.73
2023-03-17T04:38:16.621Z,72.88
2023-03-17T04:43:14.237Z,73.04
2023-03-17T04:48:11.152Z,73.42
2023-03-17T04:53:08.481Z,73.42
2023-03-17T04:58:06.313Z,73.10
2023-03-17T05:03:09.085Z,73.16
2023-03-17T05:08:13.717Z,72.67
2023-03-17T05:13:10.884Z,72.73
2023-03-17T05:18:08.951Z,72.23
2023-03-17T05:23:05.913Z,72.43
2023-03-17T05:28:03.224Z,72.48
2023-03-17T05:33:00.357Z,71.90
2023-03-17T05:38:00.639Z,71.38
2023-03-17T05:43:04.311Z,71.26
2023-03-17T05:48:11.729Z,71.07
2023-03-17T05:53:10.050Z,70.99
2023-03-17T05:58:07.327Z,70.85
2023-03-17T06:03:05.039Z,70.80
2023-03-17T06:08:01.904Z,70.39
2023-03-17T06:13:00.398Z,69.36
2023-03-17T06:18:00.394Z,68.96
2023-03-17T06:23:05.041Z,65.67
2023-03-17T06:28:08.769Z,65.07
2023-03-17T06:33:08.820Z,64.28
2023-03-17T06:38:09.022Z,65.22
2023-03-17T06:43:06.934Z,65.11
2023-03-17T06:48:04.182Z,62.33
2023-03-17T06:53:01.269Z,60.53
2023-03-17T06:58:07.347Z,59.16
2023-03-17T07:03:05.299Z,53.00
2023-03-17T07:08:02.069Z,56.09
2023-03-17T07:12:59.032Z,57.52
2023-03-17T07:17:56.032Z,54.87
2023-03-17T07:22:53.446Z,56.49
2023-03-17T07:27:51.360Z,58.15
2023-03-17T07:32:48.813Z,57.52
2023-03-17T07:37:45.601Z,59.01
2023-03-17T07:42:43.049Z,53.89
2023-03-17T07:47:40.091Z,52.54
2023-03-17T07:52:37.986Z,50.21
2023-03-17T07:57:34.819Z,47.89
2023-03-17T08:02:36.109Z,41.59
2023-03-17T08:07:38.519Z,38.85
2023-03-17T08:12:35.980Z,41.30
2023-03-17T08:17:36.039Z,39.93
2023-03-17T08:22:36.225Z,37.80
2023-03-17T08:27:34.907Z,37.18
2023-03-17T08:32:31.945Z,37.32
2023-03-17T08:37:37.290Z,36.69
2023-03-17T08:42:34.822Z,36.99
2023-03-17T08:47:35.573Z,40.44
2023-03-17T08:52:41.908Z,42.83
2023-03-17T08:57:39.138Z,43.67
2023-03-17T09:02:37.310Z,42.16
2023-03-17T09:07:37.912Z,42.34
2023-03-17T09:12:35.804Z,43.00
2023-03-17T09:17:32.606Z,44.93
2023-03-17T09:22:29.472Z,46.63
2023-03-17T09:27:27.010Z,47.90
2023-03-17T09:32:23.796Z,48.46
2023-03-17T09:37:20.868Z,48.98
2023-03-17T09:42:34.443Z,48.83
2023-03-17T09:47:57.004Z,50.33
2023-03-17T09:52:56.218Z,51.48
2023-03-17T09:57:56.120Z,51.49
2023-03-17T10:02:53.686Z,51.71
2023-03-17T10:07:59.034Z,51.86
2023-03-17T10:13:05.642Z,52.13
2023-03-17T10:18:08.894Z,52.19
2023-03-17T10:23:10.075Z,51.88
2023-03-17T10:28:22.565Z,50.53
2023-03-17T10:33:20.628Z,49.18
2023-03-17T10:38:19.182Z,48.85
2023-03-17T10:43:21.184Z,48.47
2023-03-17T10:48:20.119Z,47.20
2023-03-17T10:53:21.063Z,46.95
2023-03-17T10:58:22.099Z,45.43
2023-03-17T11:03:24.066Z,44.35
2023-03-17T11:08:22.609Z,43.81
2023-03-17T11:13:20.433Z,42.48
2023-03-17T11:18:21.964Z,42.84
2023-03-17T11:23:32.636Z,41.75
2023-03-17T11:28:35.318Z,41.22
2023-03-17T11:33:48.075Z,41.66
2023-03-17T11:38:56.401Z,42.75
2023-03-17T11:44:07.497Z,42.94
2023-03-17T11:49:11.622Z,42.19
2023-03-17T11:54:13.728Z,43.03
2023-03-17T11:59:25.802Z,43.54
2023-03-17T12:04:30.136Z,43.82
2023-03-17T12:09:32.512Z,44.78
2023-03-17T12:14:36.745Z,44.13
2023-03-17T12:19:41.853Z,45.37
2023-03-17T12:24:43.104Z,45.72
2023-03-17T12:29:46.668Z,45.93
2023-03-17T12:34:50.342Z,46.68
2023-03-17T12:39:55.056Z,47.17
2023-03-17T12:45:14.337Z,46.63
2023-03-17T12:50:39.713Z,46.98
2023-03-17T12:55:37.077Z,47.88
2023-03-17T13:00:50.024Z,47.56
2023-03-17T13:05:53.150Z,47.56
2023-03-17T13:10:50.650Z,48.51
2023-03-17T13:15:58.234Z,47.39
2023-03-17T13:21:12.261Z,48.15
2023-03-17T13:26:16.893Z,48.40
2023-03-17T13:31:36.326Z,48.86
2023-03-17T13:36:47.271Z,49.11
2023-03-17T13:42:15.722Z,49.80
2023-03-17T13:47:31.361Z,49.82
2023-03-17T13:52:32.516Z,50.84
2023-03-17T13:57:43.162Z,51.39
2023-03-17T14:02:43.252Z,51.23
2023-03-17T14:07:50.020Z,51.11
2023-03-17T14:12:55.374Z,51.54
2023-03-17T14:18:10.424Z,50.30
2023-03-17T14:23:09.260Z,50.78
2023-03-17T14:28:11.065Z,50.45
2023-03-17T14:33:21.473Z,51.40
2023-03-17T14:38:21.431Z,52.49
2023-03-17T14:43:18.294Z,53.06
2023-03-17T14:48:21.228Z,53.95
2023-03-17T14:53:19.227Z,54.70
2023-03-17T14:58:23.472Z,55.17
2023-03-17T15:03:25.633Z,55.39
2023-03-17T15:08:40.324Z,55.76
2023-03-17T15:13:38.457Z,56.38
2023-03-17T15:18:38.609Z,57.05
2023-03-17T15:23:45.023Z,58.04
2023-03-17T15:28:43.844Z,58.78
2023-03-17T15:33:43.410Z,58.86
2023-03-17T15:38:40.630Z,59.61
2023-03-17T15:43:37.966Z,59.93
2023-03-17T15:48:36.304Z,60.32
2023-03-17T15:53:34.559Z,60.81
2023-03-17T15:58:34.512Z,61.06
2023-03-17T16:03:34.238Z,61.37
2023-03-17T16:08:34.122Z,62.03
2023-03-17T16:13:34.197Z,62.53
2023-03-17T16:18:34.338Z,62.84
2023-03-17T16:23:35.344Z,63.39
2023-03-17T16:28:34.349Z,63.39
2023-03-17T16:33:35.858Z,63.85
2023-03-17T16:38:34.378Z,63.85
2023-03-17T16:43:37.573Z,63.64
2023-03-17T16:48:40.599Z,64.16
2023-03-17T16:53:37.485Z,64.54
2023-03-17T16:58:39.872Z,64.47
2023-03-17T17:03:37.259Z,64.29
2023-03-17T17:08:34.303Z,64.73
2023-03-17T17:13:37.214Z,64.86
2023-03-17T17:18:41.128Z,64.98
2023-03-17T17:23:38.373Z,64.91
2023-03-17T17:28:39.061Z,64.98
2023-03-17T17:33:37.046Z,65.45
2023-03-17T17:38:34.068Z,64.45
2023-03-17T17:43:32.150Z,64.80
2023-03-17T17:48:30.016Z,64.73
2023-03-17T17:53:29.145Z,64.61
2023-03-17T17:58:26.474Z,64.54
2023-03-17T18:03:24.748Z,64.75
2023-03-17T18:08:27.587Z,64.51
2023-03-17T18:13:27.687Z,64.66
2023-03-17T18:18:34.939Z,64.93
2023-03-17T18:23:38.561Z,64.67
2023-03-17T18:28:36.107Z,64.47
2023-03-17T18:33:33.467Z,64.54
2023-03-17T18:38:31.390Z,64.51
2023-03-17T18:43:29.942Z,64.54
2023-03-17T18:48:29.290Z,64.69
2023-03-17T18:53:26.632Z,64.95
2023-03-17T18:58:23.899Z,64.27
2023-03-17T19:03:33.026Z,64.11
2023-03-17T19:08:30.003Z,64.29
2023-03-17T19:13:27.381Z,64.40
2023-03-17T19:18:26.957Z,64.34
2023-03-17T19:23:24.194Z,63.97
2023-03-17T19:28:21.450Z,64.10
2023-03-17T19:33:23.628Z,64.21
2023-03-17T19:38:22.752Z,63.90
2023-03-17T19:43:36.802Z,64.23
2023-03-17T19:48:40.076Z,63.84
2023-03-17T19:53:39.219Z,64.03
2023-03-17T19:58:36.174Z,64.66
2023-03-17T20:03:34.568Z,64.84
2023-03-17T20:08:31.511Z,64.82
2023-03-17T20:13:28.979Z,64.74
2023-03-17T20:18:26.046Z,64.71
2023-03-17T20:23:24.295Z,64.62
2023-03-17T20:28:21.525Z,64.82
2023-03-17T20:33:19.158Z,64.89
2023-03-17T20:38:16.006Z,64.93
2023-03-17T20:48:27.308Z,64.97
2023-03-17T20:53:24.253Z,64.79
2023-03-17T20:58:22.550Z,63.32
2023-03-17T21:03:19.510Z,63.52
2023-03-17T21:08:17.074Z,64.08
2023-03-17T21:13:17.247Z,64.45
2023-03-17T21:18:14.116Z,64.16
2023-03-17T21:23:13.557Z,64.37
2023-03-17T21:28:13.010Z,64.50
2023-03-17T21:33:11.007Z,64.29
2023-03-17T21:38:10.271Z,63.18
2023-03-17T21:43:09.489Z,63.41
2023-03-17T21:48:07.140Z,62.62
2023-03-17T21:53:04.614Z,63.00
2023-03-17T21:58:02.005Z,63.50
2023-03-17T22:03:01.273Z,63.74
2023-03-17T22:07:59.056Z,63.88
2023-03-17T22:12:58.984Z,63.66
2023-03-17T22:17:57.124Z,63.86
2023-03-17T22:22:53.945Z,63.69
2023-03-17T22:27:53.029Z,63.01
2023-03-17T22:32:50.461Z,63.60
2023-03-17T22:37:47.331Z,63.93
2023-03-17T22:42:44.114Z,63.78
2023-03-17T22:47:41.757Z,63.62
2023-03-17T22:52:38.550Z,64.13
2023-03-17T22:57:35.580Z,63.63
2023-03-17T23:02:32.385Z,63.99
2023-03-17T23:07:44.309Z,64.09
2023-03-17T23:12:47.968Z,64.46
2023-03-17T23:17:45.556Z,64.66
2023-03-17T23:22:43.428Z,64.77
2023-03-17T23:27:40.790Z,64.22
2023-03-17T23:32:37.820Z,63.93
2023-03-17T23:37:34.795Z,62.22
2023-03-17T23:42:33.052Z,62.68
2023-03-17T23:47:29.989Z,62.95
2023-03-17T23:52:27.533Z,63.14
2023-03-17T23:57:24.966Z,64.39
